sensor_id;sensor_type;location;lat;lon;timestamp;P1;durP1;ratioP1;P2;durP2;ratioP2
69906;SDS011;57190;47.918;8.112;2023-04-16T00:05:21;3.00;;;2.80;;
69906;SDS011;57190;47.918;8.112;2023-04-16T00:07:48;3.27;;;3.07;;
69906;SDS011;57190;47.918;8.112;2023-04-16T00:10:20;2.93;;;2.73;;
69906;SDS011;57190;47.918;8.112;2023-04-16T00:12:45;3.37;;;3.17;;
69906;SDS011;57190;47.918;8.112;2023-04-16T00:15:11;3.23;;;3.03;;
69906;SDS011;57190;47.918;8.112;2023-04-16T00:17:36;3.10;;;2.90;;
69906;SDS011;57190;47.918;8.112;2023-04-16T00:20:02;3.03;;;2.83;;
69906;SDS011;57190;47.918;8.112;2023-04-16T00:22:33;2.90;;;2.70;;
69906;SDS011;57190;47.918;8.112;2023-04-16T00:24:59;2.50;;;2.40;;
69906;SDS011;57190;47.918;8.112;2023-04-16T00:27:24;3.13;;;2.93;;
69906;SDS011;57190;47.918;8.112;2023-04-16T00:29:50;3.07;;;2.87;;
69906;SDS011;57190;47.918;8.112;2023-04-16T00:32:16;2.70;;;2.50;;
69906;SDS011;57190;47.918;8.112;2023-04-16T00:34:41;2.93;;;2.73;;
69906;SDS011;57190;47.918;8.112;2023-04-16T00:37:07;3.33;;;2.80;;
69906;SDS011;57190;47.918;8.112;2023-04-16T00:39:32;2.77;;;2.57;;
69906;SDS011;57190;47.918;8.112;2023-04-16T00:41:58;2.77;;;2.57;;
69906;SDS011;57190;47.918;8.112;2023-04-16T00:44:29;2.97;;;2.77;;
69906;SDS011;57190;47.918;8.112;2023-04-16T00:46:55;3.47;;;2.97;;
69906;SDS011;57190;47.918;8.112;2023-04-16T00:49:22;2.70;;;2.50;;
69906;SDS011;57190;47.918;8.112;2023-04-16T00:51:48;3.63;;;3.33;;
69906;SDS011;57190;47.918;8.112;2023-04-16T00:54:14;3.03;;;2.83;;
69906;SDS011;57190;47.918;8.112;2023-04-16T00:56:40;2.80;;;2.60;;
69906;SDS011;57190;47.918;8.112;2023-04-16T00:59:05;5.10;;;3.10;;
69906;SDS011;57190;47.918;8.112;2023-04-16T01:01:31;17.80;;;3.33;;
69906;SDS011;57190;47.918;8.112;2023-04-16T01:03:56;6.27;;;3.07;;
69906;SDS011;57190;47.918;8.112;2023-04-16T01:06:22;11.50;;;2.90;;
69906;SDS011;57190;47.918;8.112;2023-04-16T01:08:48;2.43;;;2.33;;
69906;SDS011;57190;47.918;8.112;2023-04-16T01:11:13;9.53;;;3.00;;
69906;SDS011;57190;47.918;8.112;2023-04-16T01:13:40;4.97;;;2.10;;
69906;SDS011;57190;47.918;8.112;2023-04-16T01:16:06;3.63;;;2.57;;
69906;SDS011;57190;47.918;8.112;2023-04-16T01:18:33;2.53;;;2.30;;
69906;SDS011;57190;47.918;8.112;2023-04-16T01:20:59;2.40;;;2.30;;
69906;SDS011;57190;47.918;8.112;2023-04-16T01:23:24;2.30;;;2.20;;
69906;SDS011;57190;47.918;8.112;2023-04-16T01:25:50;2.47;;;2.37;;
69906;SDS011;57190;47.918;8.112;2023-04-16T01:28:16;2.70;;;2.50;;
69906;SDS011;57190;47.918;8.112;2023-04-16T01:30:41;2.50;;;2.40;;
69906;SDS011;57190;47.918;8.112;2023-04-16T01:33:08;2.70;;;2.50;;
69906;SDS011;57190;47.918;8.112;2023-04-16T01:35:38;2.40;;;2.30;;
69906;SDS011;57190;47.918;8.112;2023-04-16T01:38:05;2.87;;;2.67;;
69906;SDS011;57190;47.918;8.112;2023-04-16T01:40:32;2.50;;;2.40;;
69906;SDS011;57190;47.918;8.112;2023-04-16T01:42:58;2.80;;;2.60;;
69906;SDS011;57190;47.918;8.112;2023-04-16T01:45:24;2.27;;;2.17;;
69906;SDS011;57190;47.918;8.112;2023-04-16T01:47:49;9.63;;;2.40;;
69906;SDS011;57190;47.918;8.112;2023-04-16T01:50:16;6.57;;;2.93;;
69906;SDS011;57190;47.918;8.112;2023-04-16T01:52:42;19.13;;;3.13;;
69906;SDS011;57190;47.918;8.112;2023-04-16T01:55:08;10.70;;;3.20;;
69906;SDS011;57190;47.918;8.112;2023-04-16T01:57:34;28.23;;;3.57;;
69906;SDS011;57190;47.918;8.112;2023-04-16T01:59:59;6.13;;;3.00;;
69906;SDS011;57190;47.918;8.112;2023-04-16T02:02:25;4.53;;;2.90;;
69906;SDS011;57190;47.918;8.112;2023-04-16T02:04:53;11.53;;;3.33;;
69906;SDS011;57190;47.918;8.112;2023-04-16T02:07:19;56.70;;;5.00;;
69906;SDS011;57190;47.918;8.112;2023-04-16T02:09:44;32.00;;;4.57;;
69906;SDS011;57190;47.918;8.112;2023-04-16T02:12:10;15.63;;;3.40;;
69906;SDS011;57190;47.918;8.112;2023-04-16T02:14:35;18.03;;;3.80;;
69906;SDS011;57190;47.918;8.112;2023-04-16T02:17:01;3.47;;;3.10;;
69906;SDS011;57190;47.918;8.112;2023-04-16T02:19:27;3.43;;;3.23;;
69906;SDS011;57190;47.918;8.112;2023-04-16T02:21:53;3.80;;;3.50;;
69906;SDS011;57190;47.918;8.112;2023-04-16T02:24:19;4.23;;;3.93;;
69906;SDS011;57190;47.918;8.112;2023-04-16T02:26:45;4.80;;;4.40;;
69906;SDS011;57190;47.918;8.112;2023-04-16T02:29:11;4.27;;;3.97;;
69906;SDS011;57190;47.918;8.112;2023-04-16T02:31:37;4.60;;;4.30;;
69906;SDS011;57190;47.918;8.112;2023-04-16T02:34:03;5.60;;;5.10;;
69906;SDS011;57190;47.918;8.112;2023-04-16T02:36:29;5.60;;;5.10;;
69906;SDS011;57190;47.918;8.112;2023-04-16T02:38:55;3.93;;;3.63;;
69906;SDS011;57190;47.918;8.112;2023-04-16T02:41:21;4.83;;;4.43;;
69906;SDS011;57190;47.918;8.112;2023-04-16T02:43:47;4.63;;;4.33;;
69906;SDS011;57190;47.918;8.112;2023-04-16T02:46:12;5.00;;;4.70;;
69906;SDS011;57190;47.918;8.112;2023-04-16T02:48:38;4.77;;;4.40;;
69906;SDS011;57190;47.918;8.112;2023-04-16T02:51:04;20.13;;;5.77;;
69906;SDS011;57190;47.918;8.112;2023-04-16T02:53:30;9.93;;;3.67;;
69906;SDS011;57190;47.918;8.112;2023-04-16T02:55:55;79.60;;;8.97;;
69906;SDS011;57190;47.918;8.112;2023-04-16T02:58:21;113.07;;;9.20;;
69906;SDS011;57190;47.918;8.112;2023-04-16T03:00:51;107.07;;;9.20;;
69906;SDS011;57190;47.918;8.112;2023-04-16T03:03:54;81.50;;;8.47;;
69906;SDS011;57190;47.918;8.112;2023-04-16T03:06:19;181.47;;;9.83;;
69906;SDS011;57190;47.918;8.112;2023-04-16T03:08:45;104.60;;;8.00;;
69906;SDS011;57190;47.918;8.112;2023-04-16T03:11:10;313.97;;;17.83;;
69906;SDS011;57190;47.918;8.112;2023-04-16T03:13:36;580.53;;;30.07;;
69906;SDS011;57190;47.918;8.112;2023-04-16T03:16:01;370.80;;;19.40;;
69906;SDS011;57190;47.918;8.112;2023-04-16T03:18:27;428.40;;;20.47;;
69906;SDS011;57190;47.918;8.112;2023-04-16T03:20:52;313.67;;;18.93;;
69906;SDS011;57190;47.918;8.112;2023-04-16T03:23:18;285.93;;;16.23;;
69906;SDS011;57190;47.918;8.112;2023-04-16T03:25:44;332.33;;;15.57;;
69906;SDS011;57190;47.918;8.112;2023-04-16T03:28:13;217.10;;;11.63;;
69906;SDS011;57190;47.918;8.112;2023-04-16T03:30:39;102.00;;;7.53;;
69906;SDS011;57190;47.918;8.112;2023-04-16T03:33:04;149.37;;;9.03;;
69906;SDS011;57190;47.918;8.112;2023-04-16T03:35:30;175.33;;;9.93;;
69906;SDS011;57190;47.918;8.112;2023-04-16T03:37:55;203.83;;;9.83;;
69906;SDS011;57190;47.918;8.112;2023-04-16T03:40:21;130.50;;;7.73;;
69906;SDS011;57190;47.918;8.112;2023-04-16T03:42:48;122.30;;;7.93;;
69906;SDS011;57190;47.918;8.112;2023-04-16T03:45:13;100.80;;;7.10;;
69906;SDS011;57190;47.918;8.112;2023-04-16T03:47:39;159.93;;;9.47;;
69906;SDS011;57190;47.918;8.112;2023-04-16T03:50:05;374.37;;;17.93;;
69906;SDS011;57190;47.918;8.112;2023-04-16T03:52:30;247.13;;;12.43;;
69906;SDS011;57190;47.918;8.112;2023-04-16T03:54:56;430.73;;;21.10;;
69906;SDS011;57190;47.918;8.112;2023-04-16T03:57:21;459.80;;;19.03;;
69906;SDS011;57190;47.918;8.112;2023-04-16T03:59:53;495.57;;;21.50;;
69906;SDS011;57190;47.918;8.112;2023-04-16T04:02:18;286.33;;;13.63;;
69906;SDS011;57190;47.918;8.112;2023-04-16T04:04:44;252.10;;;12.90;;
69906;SDS011;57190;47.918;8.112;2023-04-16T04:07:09;309.00;;;13.57;;
69906;SDS011;57190;47.918;8.112;2023-04-16T04:09:35;349.90;;;16.20;;
69906;SDS011;57190;47.918;8.112;2023-04-16T04:12:00;382.33;;;17.87;;
69906;SDS011;57190;47.918;8.112;2023-04-16T04:14:26;575.77;;;29.67;;
69906;SDS011;57190;47.918;8.112;2023-04-16T04:16:51;473.00;;;26.13;;
69906;SDS011;57190;47.918;8.112;2023-04-16T04:19:17;233.23;;;11.37;;
69906;SDS011;57190;47.918;8.112;2023-04-16T04:21:42;385.93;;;17.07;;
69906;SDS011;57190;47.918;8.112;2023-04-16T04:24:07;413.40;;;21.17;;
69906;SDS011;57190;47.918;8.112;2023-04-16T04:26:33;212.33;;;11.20;;
69906;SDS011;57190;47.918;8.112;2023-04-16T04:28:58;130.00;;;9.27;;
69906;SDS011;57190;47.918;8.112;2023-04-16T04:31:24;392.87;;;20.40;;
69906;SDS011;57190;47.918;8.112;2023-04-16T04:33:49;257.97;;;14.00;;
69906;SDS011;57190;47.918;8.112;2023-04-16T04:36:15;325.33;;;21.07;;
69906;SDS011;57190;47.918;8.112;2023-04-16T04:38:40;217.87;;;12.83;;
69906;SDS011;57190;47.918;8.112;2023-04-16T04:41:06;216.13;;;12.20;;
69906;SDS011;57190;47.918;8.112;2023-04-16T04:43:31;199.67;;;11.17;;
69906;SDS011;57190;47.918;8.112;2023-04-16T04:45:57;217.67;;;11.37;;
69906;SDS011;57190;47.918;8.112;2023-04-16T04:48:22;335.07;;;16.23;;
69906;SDS011;57190;47.918;8.112;2023-04-16T04:50:50;348.70;;;17.27;;
69906;SDS011;57190;47.918;8.112;2023-04-16T04:53:17;522.63;;;31.57;;
69906;SDS011;57190;47.918;8.112;2023-04-16T04:55:42;527.17;;;23.60;;
69906;SDS011;57190;47.918;8.112;2023-04-16T04:58:07;432.67;;;20.73;;
69906;SDS011;57190;47.918;8.112;2023-04-16T05:00:33;796.80;;;44.00;;
69906;SDS011;57190;47.918;8.112;2023-04-16T05:03:19;449.70;;;23.60;;
69906;SDS011;57190;47.918;8.112;2023-04-16T05:05:45;435.93;;;19.70;;
69906;SDS011;57190;47.918;8.112;2023-04-16T05:08:11;446.10;;;22.07;;
69906;SDS011;57190;47.918;8.112;2023-04-16T05:10:36;365.60;;;19.63;;
69906;SDS011;57190;47.918;8.112;2023-04-16T05:13:02;343.03;;;15.70;;
69906;SDS011;57190;47.918;8.112;2023-04-16T05:15:28;448.37;;;22.57;;
69906;SDS011;57190;47.918;8.112;2023-04-16T05:17:53;404.13;;;20.87;;
69906;SDS011;57190;47.918;8.112;2023-04-16T05:20:20;270.20;;;15.37;;
69906;SDS011;57190;47.918;8.112;2023-04-16T05:22:48;243.43;;;12.57;;
69906;SDS011;57190;47.918;8.112;2023-04-16T05:25:14;190.40;;;10.33;;
69906;SDS011;57190;47.918;8.112;2023-04-16T05:27:39;260.97;;;13.00;;
69906;SDS011;57190;47.918;8.112;2023-04-16T05:30:05;173.13;;;9.90;;
69906;SDS011;57190;47.918;8.112;2023-04-16T05:32:31;201.03;;;12.33;;
69906;SDS011;57190;47.918;8.112;2023-04-16T05:34:56;151.20;;;8.77;;
69906;SDS011;57190;47.918;8.112;2023-04-16T05:37:22;379.27;;;21.73;;
69906;SDS011;57190;47.918;8.112;2023-04-16T05:39:47;481.97;;;25.90;;
69906;SDS011;57190;47.918;8.112;2023-04-16T05:42:13;209.10;;;10.73;;
69906;SDS011;57190;47.918;8.112;2023-04-16T05:44:39;383.27;;;21.17;;
69906;SDS011;57190;47.918;8.112;2023-04-16T05:47:05;348.83;;;19.60;;
69906;SDS011;57190;47.918;8.112;2023-04-16T05:49:33;84.60;;;8.40;;
69906;SDS011;57190;47.918;8.112;2023-04-16T05:51:59;87.30;;;8.80;;
69906;SDS011;57190;47.918;8.112;2023-04-16T05:54:24;187.23;;;14.87;;
69906;SDS011;57190;47.918;8.112;2023-04-16T05:56:50;183.17;;;13.83;;
69906;SDS011;57190;47.918;8.112;2023-04-16T05:59:15;32.00;;;5.10;;
69906;SDS011;57190;47.918;8.112;2023-04-16T06:05:03;19.20;;;4.10;;
69906;SDS011;57190;47.918;8.112;2023-04-16T06:07:28;8.73;;;3.20;;
69906;SDS011;57190;47.918;8.112;2023-04-16T06:09:54;3.73;;;3.43;;
69906;SDS011;57190;47.918;8.112;2023-04-16T06:12:19;4.33;;;3.93;;
69906;SDS011;57190;47.918;8.112;2023-04-16T06:14:45;3.40;;;3.10;;
69906;SDS011;57190;47.918;8.112;2023-04-16T06:17:10;3.10;;;2.90;;
69906;SDS011;57190;47.918;8.112;2023-04-16T06:19:36;3.17;;;2.97;;
69906;SDS011;57190;47.918;8.112;2023-04-16T06:22:01;3.60;;;3.27;;
69906;SDS011;57190;47.918;8.112;2023-04-16T06:24:28;3.00;;;2.70;;
69906;SDS011;57190;47.918;8.112;2023-04-16T06:26:54;3.13;;;2.93;;
69906;SDS011;57190;47.918;8.112;2023-04-16T06:29:19;3.47;;;3.23;;
69906;SDS011;57190;47.918;8.112;2023-04-16T06:31:45;3.33;;;3.13;;
69906;SDS011;57190;47.918;8.112;2023-04-16T06:34:10;3.07;;;2.80;;
69906;SDS011;57190;47.918;8.112;2023-04-16T06:36:36;2.90;;;2.70;;
69906;SDS011;57190;47.918;8.112;2023-04-16T06:39:01;2.53;;;2.43;;
69906;SDS011;57190;47.918;8.112;2023-04-16T06:41:27;2.10;;;2.00;;
69906;SDS011;57190;47.918;8.112;2023-04-16T06:43:52;2.00;;;1.90;;
69906;SDS011;57190;47.918;8.112;2023-04-16T06:46:18;1.73;;;1.63;;
69906;SDS011;57190;47.918;8.112;2023-04-16T06:48:43;2.37;;;2.17;;
69906;SDS011;57190;47.918;8.112;2023-04-16T06:51:09;2.20;;;2.10;;
69906;SDS011;57190;47.918;8.112;2023-04-16T06:53:35;1.60;;;1.50;;
69906;SDS011;57190;47.918;8.112;2023-04-16T06:56:01;1.80;;;1.70;;
69906;SDS011;57190;47.918;8.112;2023-04-16T06:58:27;1.33;;;1.30;;
69906;SDS011;57190;47.918;8.112;2023-04-16T07:00:52;1.40;;;1.30;;
69906;SDS011;57190;47.918;8.112;2023-04-16T07:03:18;1.70;;;1.60;;
69906;SDS011;57190;47.918;8.112;2023-04-16T07:05:43;1.70;;;1.60;;
69906;SDS011;57190;47.918;8.112;2023-04-16T07:08:09;1.80;;;1.70;;
69906;SDS011;57190;47.918;8.112;2023-04-16T07:10:34;1.53;;;1.43;;
69906;SDS011;57190;47.918;8.112;2023-04-16T07:13:00;1.60;;;1.50;;
69906;SDS011;57190;47.918;8.112;2023-04-16T07:15:26;1.50;;;1.40;;
69906;SDS011;57190;47.918;8.112;2023-04-16T07:17:51;2.50;;;1.53;;
69906;SDS011;57190;47.918;8.112;2023-04-16T07:20:17;1.27;;;1.27;;
69906;SDS011;57190;47.918;8.112;2023-04-16T07:22:42;1.57;;;1.47;;
69906;SDS011;57190;47.918;8.112;2023-04-16T07:25:08;1.40;;;1.30;;
69906;SDS011;57190;47.918;8.112;2023-04-16T07:27:34;1.47;;;1.37;;
69906;SDS011;57190;47.918;8.112;2023-04-16T07:29:59;1.67;;;1.57;;
69906;SDS011;57190;47.918;8.112;2023-04-16T07:32:24;1.50;;;1.40;;
69906;SDS011;57190;47.918;8.112;2023-04-16T07:34:50;1.37;;;1.37;;
69906;SDS011;57190;47.918;8.112;2023-04-16T07:37:16;1.30;;;1.20;;
69906;SDS011;57190;47.918;8.112;2023-04-16T07:39:41;1.30;;;1.20;;
69906;SDS011;57190;47.918;8.112;2023-04-16T07:42:06;1.20;;;1.13;;
69906;SDS011;57190;47.918;8.112;2023-04-16T07:44:32;1.37;;;1.30;;
69906;SDS011;57190;47.918;8.112;2023-04-16T07:46:57;1.07;;;1.07;;
69906;SDS011;57190;47.918;8.112;2023-04-16T07:49:23;1.53;;;1.43;;
69906;SDS011;57190;47.918;8.112;2023-04-16T07:51:48;1.33;;;1.23;;
69906;SDS011;57190;47.918;8.112;2023-04-16T07:54:14;0.90;;;0.90;;
69906;SDS011;57190;47.918;8.112;2023-04-16T07:56:39;1.03;;;1.03;;
69906;SDS011;57190;47.918;8.112;2023-04-16T07:59:05;1.73;;;1.30;;
69906;SDS011;57190;47.918;8.112;2023-04-16T08:01:31;0.90;;;0.90;;
69906;SDS011;57190;47.918;8.112;2023-04-16T08:03:56;1.00;;;1.00;;
69906;SDS011;57190;47.918;8.112;2023-04-16T08:06:22;1.77;;;1.03;;
69906;SDS011;57190;47.918;8.112;2023-04-16T08:08:47;1.53;;;1.43;;
69906;SDS011;57190;47.918;8.112;2023-04-16T08:11:13;1.40;;;1.30;;
69906;SDS011;57190;47.918;8.112;2023-04-16T08:13:39;26.33;;;2.70;;
69906;SDS011;57190;47.918;8.112;2023-04-16T08:16:05;8.83;;;1.70;;
69906;SDS011;57190;47.918;8.112;2023-04-16T08:18:31;20.17;;;2.10;;
69906;SDS011;57190;47.918;8.112;2023-04-16T08:20:56;91.13;;;4.57;;
69906;SDS011;57190;47.918;8.112;2023-04-16T08:23:22;47.23;;;4.27;;
69906;SDS011;57190;47.918;8.112;2023-04-16T08:25:47;64.20;;;4.40;;
69906;SDS011;57190;47.918;8.112;2023-04-16T08:28:12;49.20;;;3.10;;
69906;SDS011;57190;47.918;8.112;2023-04-16T08:30:38;35.13;;;2.43;;
69906;SDS011;57190;47.918;8.112;2023-04-16T08:33:04;95.40;;;4.63;;
69906;SDS011;57190;47.918;8.112;2023-04-16T08:35:29;63.33;;;3.57;;
69906;SDS011;57190;47.918;8.112;2023-04-16T08:37:55;76.10;;;3.77;;
69906;SDS011;57190;47.918;8.112;2023-04-16T08:40:23;31.83;;;2.23;;
69906;SDS011;57190;47.918;8.112;2023-04-16T08:42:53;28.57;;;2.90;;
69906;SDS011;57190;47.918;8.112;2023-04-16T08:45:22;3.43;;;1.30;;
69906;SDS011;57190;47.918;8.112;2023-04-16T08:47:50;4.27;;;1.40;;
69906;SDS011;57190;47.918;8.112;2023-04-16T08:50:18;76.73;;;7.30;;
69906;SDS011;57190;47.918;8.112;2023-04-16T08:52:58;14.20;;;1.40;;
69906;SDS011;57190;47.918;8.112;2023-04-16T08:55:46;23.77;;;2.57;;
69906;SDS011;57190;47.918;8.112;2023-04-16T08:58:15;11.97;;;1.80;;
69906;SDS011;57190;47.918;8.112;2023-04-16T09:00:42;0.83;;;0.83;;
69906;SDS011;57190;47.918;8.112;2023-04-16T09:03:08;1.00;;;1.00;;
69906;SDS011;57190;47.918;8.112;2023-04-16T09:05:37;0.93;;;0.93;;
69906;SDS011;57190;47.918;8.112;2023-04-16T09:08:03;0.90;;;0.90;;
69906;SDS011;57190;47.918;8.112;2023-04-16T09:10:30;0.80;;;0.80;;
69906;SDS011;57190;47.918;8.112;2023-04-16T09:12:56;0.70;;;0.70;;
69906;SDS011;57190;47.918;8.112;2023-04-16T09:15:23;0.80;;;0.80;;
69906;SDS011;57190;47.918;8.112;2023-04-16T09:17:50;0.70;;;0.70;;
69906;SDS011;57190;47.918;8.112;2023-04-16T09:20:16;0.70;;;0.70;;
69906;SDS011;57190;47.918;8.112;2023-04-16T09:22:43;0.63;;;0.63;;
69906;SDS011;57190;47.918;8.112;2023-04-16T09:25:09;0.60;;;0.60;;
69906;SDS011;57190;47.918;8.112;2023-04-16T09:27:35;2.80;;;0.63;;
69906;SDS011;57190;47.918;8.112;2023-04-16T09:30:03;0.80;;;0.80;;
69906;SDS011;57190;47.918;8.112;2023-04-16T09:32:52;0.80;;;0.80;;
69906;SDS011;57190;47.918;8.112;2023-04-16T09:35:43;4.77;;;1.10;;
69906;SDS011;57190;47.918;8.112;2023-04-16T09:38:13;2.13;;;0.80;;
69906;SDS011;57190;47.918;8.112;2023-04-16T09:40:39;24.07;;;1.70;;
69906;SDS011;57190;47.918;8.112;2023-04-16T09:43:15;67.80;;;3.23;;
69906;SDS011;57190;47.918;8.112;2023-04-16T09:45:51;178.17;;;8.53;;
69906;SDS011;57190;47.918;8.112;2023-04-16T09:48:30;115.57;;;5.90;;
69906;SDS011;57190;47.918;8.112;2023-04-16T09:50:57;55.43;;;3.53;;
69906;SDS011;57190;47.918;8.112;2023-04-16T09:53:24;128.67;;;9.40;;
69906;SDS011;57190;47.918;8.112;2023-04-16T09:55:51;103.43;;;6.70;;
69906;SDS011;57190;47.918;8.112;2023-04-16T09:58:19;75.53;;;4.60;;
69906;SDS011;57190;47.918;8.112;2023-04-16T10:00:45;95.63;;;6.87;;
69906;SDS011;57190;47.918;8.112;2023-04-16T10:03:10;138.60;;;7.33;;
69906;SDS011;57190;47.918;8.112;2023-04-16T10:05:36;63.83;;;3.60;;
69906;SDS011;57190;47.918;8.112;2023-04-16T10:08:01;37.67;;;3.07;;
69906;SDS011;57190;47.918;8.112;2023-04-16T10:10:28;17.30;;;1.63;;
69906;SDS011;57190;47.918;8.112;2023-04-16T10:12:54;42.27;;;3.10;;
69906;SDS011;57190;47.918;8.112;2023-04-16T10:15:20;45.87;;;4.13;;
69906;SDS011;57190;47.918;8.112;2023-04-16T10:17:46;24.67;;;2.00;;
69906;SDS011;57190;47.918;8.112;2023-04-16T10:20:13;54.20;;;3.10;;
69906;SDS011;57190;47.918;8.112;2023-04-16T10:22:40;68.87;;;4.70;;
69906;SDS011;57190;47.918;8.112;2023-04-16T10:25:06;48.43;;;3.20;;
69906;SDS011;57190;47.918;8.112;2023-04-16T10:27:32;42.43;;;2.67;;
69906;SDS011;57190;47.918;8.112;2023-04-16T10:29:58;65.07;;;3.40;;
69906;SDS011;57190;47.918;8.112;2023-04-16T10:32:24;70.07;;;3.77;;
69906;SDS011;57190;47.918;8.112;2023-04-16T10:34:53;35.77;;;2.47;;
69906;SDS011;57190;47.918;8.112;2023-04-16T10:54:31;118.27;;;5.07;;
69906;SDS011;57190;47.918;8.112;2023-04-16T11:03:47;5.17;;;1.63;;
69906;SDS011;57190;47.918;8.112;2023-04-16T11:06:14;1.60;;;1.50;;
69906;SDS011;57190;47.918;8.112;2023-04-16T11:08:44;1.97;;;1.50;;
69906;SDS011;57190;47.918;8.112;2023-04-16T11:11:17;1.37;;;1.27;;
69906;SDS011;57190;47.918;8.112;2023-04-16T11:13:44;1.20;;;1.20;;
69906;SDS011;57190;47.918;8.112;2023-04-16T11:16:11;1.27;;;1.17;;
69906;SDS011;57190;47.918;8.112;2023-04-16T11:18:38;1.33;;;1.23;;
69906;SDS011;57190;47.918;8.112;2023-04-16T11:21:07;1.00;;;1.00;;
69906;SDS011;57190;47.918;8.112;2023-04-16T11:23:49;1.57;;;1.10;;
69906;SDS011;57190;47.918;8.112;2023-04-16T11:26:19;0.80;;;0.80;;
69906;SDS011;57190;47.918;8.112;2023-04-16T11:28:53;1.50;;;1.40;;
69906;SDS011;57190;47.918;8.112;2023-04-16T11:31:20;1.30;;;1.20;;
69906;SDS011;57190;47.918;8.112;2023-04-16T11:33:47;1.77;;;1.67;;
69906;SDS011;57190;47.918;8.112;2023-04-16T11:36:12;2.00;;;1.90;;
69906;SDS011;57190;47.918;8.112;2023-04-16T11:38:38;1.60;;;1.50;;
69906;SDS011;57190;47.918;8.112;2023-04-16T11:41:05;3.67;;;1.90;;
69906;SDS011;57190;47.918;8.112;2023-04-16T11:43:31;3.17;;;1.97;;
69906;SDS011;57190;47.918;8.112;2023-04-16T11:45:57;3.50;;;2.00;;
69906;SDS011;57190;47.918;8.112;2023-04-16T11:48:24;8.33;;;1.97;;
69906;SDS011;57190;47.918;8.112;2023-04-16T11:50:56;26.07;;;2.90;;
69906;SDS011;57190;47.918;8.112;2023-04-16T11:53:22;28.40;;;3.17;;
69906;SDS011;57190;47.918;8.112;2023-04-16T11:55:48;16.00;;;2.87;;
69906;SDS011;57190;47.918;8.112;2023-04-16T11:58:14;55.73;;;5.73;;
69906;SDS011;57190;47.918;8.112;2023-04-16T12:00:40;85.63;;;7.50;;
69906;SDS011;57190;47.918;8.112;2023-04-16T12:03:06;32.53;;;3.77;;
69906;SDS011;57190;47.918;8.112;2023-04-16T12:05:36;108.20;;;6.97;;
69906;SDS011;57190;47.918;8.112;2023-04-16T12:08:08;28.30;;;4.33;;
69906;SDS011;57190;47.918;8.112;2023-04-16T12:10:36;9.70;;;4.87;;
69906;SDS011;57190;47.918;8.112;2023-04-16T12:13:18;22.50;;;4.70;;
69906;SDS011;57190;47.918;8.112;2023-04-16T12:15:50;75.83;;;6.80;;
69906;SDS011;57190;47.918;8.112;2023-04-16T12:18:17;188.50;;;10.90;;
69906;SDS011;57190;47.918;8.112;2023-04-16T12:20:44;256.30;;;17.10;;
69906;SDS011;57190;47.918;8.112;2023-04-16T12:23:31;170.97;;;10.67;;
69906;SDS011;57190;47.918;8.112;2023-04-16T12:25:57;217.97;;;11.93;;
69906;SDS011;57190;47.918;8.112;2023-04-16T12:28:26;134.33;;;8.63;;
69906;SDS011;57190;47.918;8.112;2023-04-16T12:31:00;54.47;;;7.10;;
69906;SDS011;57190;47.918;8.112;2023-04-16T12:33:27;15.10;;;5.23;;
69906;SDS011;57190;47.918;8.112;2023-04-16T12:35:53;5.67;;;5.00;;
69906;SDS011;57190;47.918;8.112;2023-04-16T12:38:18;10.67;;;4.93;;
69906;SDS011;57190;47.918;8.112;2023-04-16T12:40:44;36.43;;;5.87;;
69906;SDS011;57190;47.918;8.112;2023-04-16T12:43:10;6.63;;;6.13;;
69906;SDS011;57190;47.918;8.112;2023-04-16T12:45:36;12.93;;;6.23;;
69906;SDS011;57190;47.918;8.112;2023-04-16T12:48:02;7.20;;;5.70;;
69906;SDS011;57190;47.918;8.112;2023-04-16T12:50:28;17.00;;;5.47;;
69906;SDS011;57190;47.918;8.112;2023-04-16T12:52:54;28.33;;;6.97;;
69906;SDS011;57190;47.918;8.112;2023-04-16T12:55:20;24.03;;;5.03;;
69906;SDS011;57190;47.918;8.112;2023-04-16T12:57:46;106.03;;;8.87;;
69906;SDS011;57190;47.918;8.112;2023-04-16T13:00:13;36.00;;;5.70;;
69906;SDS011;57190;47.918;8.112;2023-04-16T13:02:38;69.77;;;7.63;;
69906;SDS011;57190;47.918;8.112;2023-04-16T13:05:05;65.67;;;7.57;;
69906;SDS011;57190;47.918;8.112;2023-04-16T13:07:31;47.20;;;6.50;;
69906;SDS011;57190;47.918;8.112;2023-04-16T13:09:58;87.60;;;7.43;;
69906;SDS011;57190;47.918;8.112;2023-04-16T13:12:23;42.87;;;6.43;;
69906;SDS011;57190;47.918;8.112;2023-04-16T13:14:49;101.00;;;8.57;;
69906;SDS011;57190;47.918;8.112;2023-04-16T13:17:14;63.10;;;7.07;;
69906;SDS011;57190;47.918;8.112;2023-04-16T13:19:40;66.13;;;7.40;;
69906;SDS011;57190;47.918;8.112;2023-04-16T13:22:05;40.23;;;6.47;;
69906;SDS011;57190;47.918;8.112;2023-04-16T13:24:31;33.47;;;6.60;;
69906;SDS011;57190;47.918;8.112;2023-04-16T13:26:56;10.83;;;5.30;;
69906;SDS011;57190;47.918;8.112;2023-04-16T13:29:22;62.20;;;8.53;;
69906;SDS011;57190;47.918;8.112;2023-04-16T13:31:47;22.07;;;6.27;;
69906;SDS011;57190;47.918;8.112;2023-04-16T13:34:13;24.57;;;5.90;;
69906;SDS011;57190;47.918;8.112;2023-04-16T13:36:39;25.77;;;6.10;;
69906;SDS011;57190;47.918;8.112;2023-04-16T13:39:05;33.17;;;7.10;;
69906;SDS011;57190;47.918;8.112;2023-04-16T13:41:35;37.60;;;7.27;;
69906;SDS011;57190;47.918;8.112;2023-04-16T13:44:04;31.30;;;7.40;;
69906;SDS011;57190;47.918;8.112;2023-04-16T13:46:29;13.70;;;6.70;;
69906;SDS011;57190;47.918;8.112;2023-04-16T13:48:55;11.40;;;5.87;;
69906;SDS011;57190;47.918;8.112;2023-04-16T13:51:21;7.17;;;5.90;;
69906;SDS011;57190;47.918;8.112;2023-04-16T13:53:47;11.63;;;6.10;;
69906;SDS011;57190;47.918;8.112;2023-04-16T13:56:13;7.03;;;5.50;;
69906;SDS011;57190;47.918;8.112;2023-04-16T13:58:44;6.13;;;5.63;;
69906;SDS011;57190;47.918;8.112;2023-04-16T14:01:17;5.33;;;4.83;;
69906;SDS011;57190;47.918;8.112;2023-04-16T14:03:48;9.77;;;5.07;;
69906;SDS011;57190;47.918;8.112;2023-04-16T14:06:13;5.70;;;5.20;;
69906;SDS011;57190;47.918;8.112;2023-04-16T14:08:42;7.43;;;5.40;;
69906;SDS011;57190;47.918;8.112;2023-04-16T14:11:07;25.67;;;5.93;;
69906;SDS011;57190;47.918;8.112;2023-04-16T14:13:35;12.97;;;4.33;;
69906;SDS011;57190;47.918;8.112;2023-04-16T14:16:01;54.40;;;7.77;;
69906;SDS011;57190;47.918;8.112;2023-04-16T14:18:27;50.60;;;6.00;;
69906;SDS011;57190;47.918;8.112;2023-04-16T14:20:52;62.97;;;6.50;;
69906;SDS011;57190;47.918;8.112;2023-04-16T14:23:24;103.83;;;7.93;;
69906;SDS011;57190;47.918;8.112;2023-04-16T14:25:50;96.93;;;7.43;;
69906;SDS011;57190;47.918;8.112;2023-04-16T14:28:16;229.80;;;14.23;;
69906;SDS011;57190;47.918;8.112;2023-04-16T14:30:41;182.37;;;11.60;;
69906;SDS011;57190;47.918;8.112;2023-04-16T14:33:07;97.83;;;8.50;;
69906;SDS011;57190;47.918;8.112;2023-04-16T14:35:33;73.33;;;7.27;;
69906;SDS011;57190;47.918;8.112;2023-04-16T14:38:00;132.80;;;10.60;;
69906;SDS011;57190;47.918;8.112;2023-04-16T14:40:26;195.90;;;14.10;;
69906;SDS011;57190;47.918;8.112;2023-04-16T14:42:51;7.90;;;6.30;;
69906;SDS011;57190;47.918;8.112;2023-04-16T14:45:17;7.67;;;6.97;;
69906;SDS011;57190;47.918;8.112;2023-04-16T14:47:43;7.60;;;6.90;;
69906;SDS011;57190;47.918;8.112;2023-04-16T14:50:12;7.80;;;7.20;;
69906;SDS011;57190;47.918;8.112;2023-04-16T14:52:39;7.60;;;7.00;;
69906;SDS011;57190;47.918;8.112;2023-04-16T14:55:05;7.70;;;7.00;;
69906;SDS011;57190;47.918;8.112;2023-04-16T14:57:31;7.23;;;6.63;;
69906;SDS011;57190;47.918;8.112;2023-04-16T14:59:57;8.40;;;7.70;;
69906;SDS011;57190;47.918;8.112;2023-04-16T15:02:23;8.57;;;7.77;;
69906;SDS011;57190;47.918;8.112;2023-04-16T15:04:48;8.33;;;7.57;;